createdAt,value
2023-03-12T00:00:07.891Z,7.03
2023-03-12T00:02:35.125Z,7.77
2023-03-12T00:05:02.332Z,9.30
2023-03-12T00:07:29.600Z,7.43
2023-03-12T00:09:56.776Z,8.50
2023-03-12T00:12:23.918Z,7.57
2023-03-12T00:14:51.057Z,6.93
2023-03-12T00:17:18.165Z,8.47
2023-03-12T00:19:45.424Z,8.07
2023-03-12T00:22:12.556Z,7.63
2023-03-12T00:24:39.665Z,7.07
2023-03-12T00:27:08.533Z,7.90
2023-03-12T00:29:36.322Z,7.93
2023-03-12T00:32:03.462Z,8.27
2023-03-12T00:34:30.673Z,7.70
2023-03-12T00:36:57.837Z,7.87
2023-03-12T00:39:24.992Z,8.07
2023-03-12T00:41:53.287Z,9.30
2023-03-12T00:44:20.517Z,10.40
2023-03-12T00:46:47.744Z,8.23
2023-03-12T00:49:14.948Z,8.67
2023-03-12T00:51:42.032Z,7.87
2023-03-12T00:54:09.189Z,8.50
2023-03-12T00:56:38.420Z,8.07
2023-03-12T00:59:05.607Z,7.70
2023-03-12T01:01:32.740Z,9.83
2023-03-12T01:03:59.983Z,7.67
2023-03-12T01:06:31.279Z,7.90
2023-03-12T01:08:58.482Z,7.23
2023-03-12T01:11:25.812Z,8.03
2023-03-12T01:13:52.935Z,7.47
2023-03-12T01:16:20.086Z,7.53
2023-03-12T01:18:47.251Z,6.90
2023-03-12T01:21:14.629Z,7.67
2023-03-12T01:23:41.924Z,7.73
2023-03-12T01:26:09.066Z,7.63
2023-03-12T01:28:36.204Z,8.30
2023-03-12T01:31:10.096Z,6.47
2023-03-12T01:33:37.417Z,6.90
2023-03-12T01:36:05.027Z,6.97
2023-03-12T01:38:32.228Z,7.37
2023-03-12T01:40:59.361Z,7.27
2023-03-12T01:43:29.769Z,6.90
2023-03-12T01:46:03.391Z,6.63
2023-03-12T01:48:33.014Z,6.90
2023-03-12T01:51:00.708Z,7.03
2023-03-12T01:53:28.410Z,6.17
2023-03-12T01:56:05.893Z,6.97
2023-03-12T01:58:35.054Z,6.70
2023-03-12T02:01:03.690Z,7.23
2023-03-12T02:03:31.976Z,6.47
2023-03-12T02:06:03.079Z,6.87
2023-03-12T02:08:30.246Z,6.73
2023-03-12T02:10:57.403Z,7.03
2023-03-12T02:13:24.647Z,6.50
2023-03-12T02:15:51.741Z,6.77
2023-03-12T02:18:22.531Z,6.63
2023-03-12T02:20:55.680Z,6.20
2023-03-12T02:23:25.500Z,6.70
2023-03-12T02:25:53.104Z,7.57
2023-03-12T02:28:23.132Z,7.00
2023-03-12T02:30:52.891Z,5.97
2023-03-12T02:33:20.147Z,6.70
2023-03-12T02:35:50.676Z,6.43
2023-03-12T02:38:33.069Z,6.00
2023-03-12T02:41:02.801Z,6.70
2023-03-12T02:43:29.932Z,6.43
2023-03-12T02:45:57.132Z,5.70
2023-03-12T02:48:24.287Z,5.83
2023-03-12T02:50:51.381Z,6.37
2023-03-12T02:53:18.523Z,6.33
2023-03-12T02:59:08.716Z,5.93
2023-03-12T03:01:36.193Z,6.07
2023-03-12T03:04:03.829Z,6.47
2023-03-12T03:06:32.396Z,6.73
2023-03-12T03:08:59.722Z,5.67
2023-03-12T03:11:27.002Z,6.37
2023-03-12T03:13:55.083Z,6.37
2023-03-12T03:16:22.615Z,6.60
2023-03-12T03:18:50.121Z,6.27
2023-03-12T03:21:17.553Z,7.00
2023-03-12T03:23:45.604Z,6.50
2023-03-12T03:26:12.682Z,6.23
2023-03-12T03:28:39.885Z,5.80
2023-03-12T03:31:07.232Z,6.27
2023-03-12T03:33:35.439Z,6.10
2023-03-12T03:36:03.394Z,6.13
2023-03-12T03:38:31.014Z,7.60
2023-03-12T03:40:58.052Z,6.17
2023-03-12T03:43:25.358Z,6.57
2023-03-12T03:45:59.328Z,6.53
2023-03-12T03:48:26.438Z,6.70
2023-03-12T03:50:53.665Z,6.20
2023-03-12T03:53:21.002Z,5.77
2023-03-12T03:55:48.054Z,5.53
2023-03-12T03:58:15.281Z,5.87
2023-03-12T04:00:44.640Z,5.97
2023-03-12T04:03:11.807Z,5.60
2023-03-12T04:05:39.045Z,5.17
2023-03-12T04:08:06.464Z,5.20
2023-03-12T04:10:33.501Z,5.30
2023-03-12T04:13:00.593Z,5.40
2023-03-12T04:15:27.616Z,5.77
2023-03-12T04:17:54.738Z,5.40
2023-03-12T04:20:21.836Z,7.13
2023-03-12T04:22:48.889Z,5.63
2023-03-12T04:25:15.949Z,5.90
2023-03-12T04:27:43.079Z,5.93
2023-03-12T04:30:10.361Z,5.80
2023-03-12T04:32:37.455Z,6.17
2023-03-12T04:35:04.739Z,5.93
2023-03-12T04:37:33.046Z,6.23
2023-03-12T04:40:00.137Z,5.37
2023-03-12T04:42:27.212Z,5.90
2023-03-12T04:44:54.229Z,4.90
2023-03-12T04:47:21.292Z,5.27
2023-03-12T04:49:48.488Z,5.23
2023-03-12T04:52:17.533Z,4.97
2023-03-12T04:54:47.857Z,4.97
2023-03-12T04:57:15.165Z,4.80
2023-03-12T04:59:42.221Z,5.33
2023-03-12T05:02:09.285Z,4.60
2023-03-12T05:04:36.381Z,4.93
2023-03-12T05:07:03.485Z,4.60
2023-03-12T05:09:30.619Z,4.37
2023-03-12T05:11:57.667Z,4.37
2023-03-12T05:14:24.846Z,4.40
2023-03-12T05:16:51.942Z,4.30
2023-03-12T05:19:19.242Z,4.77
2023-03-12T05:21:46.797Z,4.20
2023-03-12T05:24:13.894Z,3.57
2023-03-12T05:26:41.035Z,4.13
2023-03-12T05:29:08.187Z,4.13
2023-03-12T05:31:36.453Z,4.27
2023-03-12T05:34:03.903Z,4.60
2023-03-12T05:36:31.041Z,3.97
2023-03-12T05:38:58.104Z,3.60
2023-03-12T05:41:29.138Z,3.80
2023-03-12T05:43:56.890Z,3.90
2023-03-12T05:46:25.159Z,3.63
2023-03-12T05:48:52.524Z,3.23
2023-03-12T05:51:20.263Z,3.87
2023-03-12T05:53:47.362Z,3.63
2023-03-12T05:56:17.164Z,3.70
2023-03-12T05:58:45.081Z,3.60
2023-03-12T06:01:13.450Z,3.03
2023-03-12T06:03:40.646Z,3.70
2023-03-12T06:06:07.842Z,2.87
2023-03-12T06:08:34.946Z,3.43
2023-03-12T06:11:02.009Z,3.60
2023-03-12T06:13:29.071Z,3.63
2023-03-12T06:16:01.753Z,3.70
2023-03-12T06:18:28.801Z,3.87
2023-03-12T06:20:55.820Z,3.17
2023-03-12T06:23:22.874Z,3.13
2023-03-12T06:25:49.974Z,2.83
2023-03-12T06:28:17.012Z,3.40
2023-03-12T06:30:44.042Z,2.57
2023-03-12T06:33:11.204Z,3.37
2023-03-12T06:35:38.323Z,3.40
2023-03-12T06:38:05.516Z,3.13
2023-03-12T06:40:32.961Z,3.17
2023-03-12T06:43:00.144Z,3.07
2023-03-12T06:45:27.197Z,3.17
2023-03-12T06:47:54.249Z,2.93
2023-03-12T06:50:21.421Z,3.33
2023-03-12T06:52:48.448Z,3.10
2023-03-12T06:55:15.531Z,2.90
2023-03-12T06:57:42.867Z,2.53
2023-03-12T07:00:10.328Z,2.80
2023-03-12T07:02:37.564Z,2.93
2023-03-12T07:05:05.067Z,2.73
2023-03-12T07:07:32.118Z,2.57
2023-03-12T07:10:00.158Z,2.83
2023-03-12T07:12:27.196Z,3.17
2023-03-12T07:14:54.249Z,2.60
2023-03-12T07:17:22.135Z,2.80
2023-03-12T07:19:49.903Z,2.80
2023-03-12T07:22:16.957Z,2.70
2023-03-12T07:24:44.259Z,3.30
2023-03-12T07:27:11.290Z,2.57
2023-03-12T07:29:38.333Z,2.57
2023-03-12T07:32:05.873Z,2.70
2023-03-12T07:34:33.070Z,2.53
2023-03-12T07:37:00.414Z,2.93
2023-03-12T07:39:27.789Z,3.00
2023-03-12T07:41:54.896Z,2.33
2023-03-12T07:44:21.955Z,3.07
2023-03-12T07:46:49.403Z,2.60
2023-03-12T07:49:16.513Z,2.70
2023-03-12T07:51:43.940Z,2.53
2023-03-12T07:54:11.002Z,2.60
2023-03-12T07:56:38.338Z,2.87
2023-03-12T07:59:05.709Z,2.87
2023-03-12T08:01:32.974Z,2.63
2023-03-12T08:04:00.417Z,2.40
2023-03-12T08:06:27.988Z,2.43
2023-03-12T08:08:55.087Z,2.67
2023-03-12T08:11:22.560Z,2.80
2023-03-12T08:13:49.918Z,3.10
2023-03-12T08:16:18.472Z,2.67
2023-03-12T08:18:45.533Z,2.70
2023-03-12T08:21:16.324Z,3.00
2023-03-12T08:23:44.240Z,2.60
2023-03-12T08:26:11.364Z,2.40
2023-03-12T08:28:38.472Z,2.80
2023-03-12T08:31:05.893Z,2.90
2023-03-12T08:33:33.004Z,3.53
2023-03-12T08:36:00.160Z,2.60
2023-03-12T08:38:27.849Z,2.73
2023-03-12T08:40:56.439Z,2.67
2023-03-12T08:43:23.473Z,2.67
2023-03-12T08:45:54.555Z,3.37
2023-03-12T08:48:21.648Z,3.57
2023-03-12T08:50:48.740Z,2.70
2023-03-12T08:53:15.774Z,3.40
2023-03-12T08:55:42.838Z,3.27
2023-03-12T08:58:09.921Z,3.17
2023-03-12T09:00:36.986Z,6.07
2023-03-12T09:03:04.177Z,7.50
2023-03-12T09:05:31.292Z,7.77
2023-03-12T09:07:58.811Z,5.10
2023-03-12T09:10:30.312Z,7.40
2023-03-12T09:12:57.908Z,9.57
2023-03-12T09:15:25.018Z,7.03
2023-03-12T09:17:52.165Z,6.50
2023-03-12T09:20:19.355Z,6.03
2023-03-12T09:22:46.615Z,6.87
2023-03-12T09:25:13.908Z,8.63
2023-03-12T09:27:42.142Z,6.50
2023-03-12T09:30:12.625Z,5.17
2023-03-12T09:32:39.759Z,6.57
2023-03-12T09:35:07.621Z,5.03
2023-03-12T09:37:36.279Z,5.40
2023-03-12T09:40:07.477Z,8.40
2023-03-12T09:42:47.665Z,4.70
2023-03-12T09:45:20.857Z,7.17
2023-03-12T09:47:53.033Z,4.13
2023-03-12T09:50:31.689Z,4.80
2023-03-12T09:53:04.148Z,4.43
2023-03-12T09:55:41.932Z,3.60
2023-03-12T09:58:25.803Z,3.83
2023-03-12T10:00:55.727Z,4.83
2023-03-12T10:03:29.044Z,4.10
2023-03-12T10:06:04.428Z,5.50
2023-03-12T10:08:40.350Z,5.80
2023-03-12T10:11:24.357Z,5.30
2023-03-12T10:13:54.665Z,5.00
2023-03-12T10:16:27.604Z,4.70
2023-03-12T10:19:13.327Z,5.00
2023-03-12T10:21:59.446Z,5.27
2023-03-12T10:24:52.833Z,5.13
2023-03-12T10:27:20.709Z,5.90
2023-03-12T10:29:49.321Z,5.43
2023-03-12T10:32:20.397Z,5.87
2023-03-12T10:34:49.699Z,7.37
2023-03-12T10:37:29.060Z,5.90
2023-03-12T10:39:56.707Z,7.47
2023-03-12T10:42:25.699Z,7.40
2023-03-12T10:44:58.797Z,7.53
2023-03-12T10:47:36.076Z,8.23
2023-03-12T10:50:12.896Z,8.30
2023-03-12T10:52:40.274Z,7.93
2023-03-12T10:55:26.424Z,7.90
2023-03-12T10:57:54.146Z,8.13
2023-03-12T11:00:26.239Z,8.93
2023-03-12T11:03:04.432Z,9.63
2023-03-12T11:05:33.797Z,11.37
2023-03-12T11:08:01.963Z,8.10
2023-03-12T11:10:45.856Z,8.73
2023-03-12T11:13:32.829Z,7.70
2023-03-12T11:16:12.211Z,7.40
2023-03-12T11:18:40.374Z,8.03
2023-03-12T11:21:10.324Z,8.37
2023-03-12T11:23:39.048Z,9.23
2023-03-12T11:26:12.582Z,8.43
2023-03-12T11:28:42.141Z,10.77
2023-03-12T11:31:19.851Z,10.10
2023-03-12T11:33:47.100Z,10.87
2023-03-12T11:36:18.032Z,10.60
2023-03-12T11:39:02.040Z,10.40
2023-03-12T11:41:42.340Z,11.40
2023-03-12T11:44:23.846Z,12.77
2023-03-12T11:46:54.043Z,12.17
2023-03-12T11:49:33.254Z,12.87
2023-03-12T11:52:06.731Z,13.23
2023-03-12T11:54:41.529Z,12.93
2023-03-12T11:57:20.661Z,12.80
2023-03-12T12:00:12.762Z,13.77
2023-03-12T12:02:46.007Z,14.13
2023-03-12T12:05:13.141Z,14.13
2023-03-12T12:07:43.277Z,14.50
2023-03-12T12:10:25.251Z,14.50
2023-03-12T12:13:11.516Z,14.90
2023-03-12T12:15:56.983Z,15.00
2023-03-12T12:18:42.526Z,14.40
2023-03-12T12:21:19.128Z,14.80
2023-03-12T12:23:59.555Z,15.60
2023-03-12T12:26:26.687Z,15.57
2023-03-12T12:28:56.736Z,15.80
2023-03-12T12:31:23.859Z,16.73
2023-03-12T12:34:09.787Z,17.20
2023-03-12T12:36:37.434Z,18.27
2023-03-12T12:39:14.689Z,16.13
2023-03-12T12:42:02.008Z,17.10
2023-03-12T12:44:33.908Z,17.07
2023-03-12T12:47:03.768Z,16.83
2023-03-12T12:49:41.852Z,18.73
2023-03-12T12:52:12.268Z,17.23
2023-03-12T12:54:58.418Z,17.50
2023-03-12T12:57:30.158Z,15.23
2023-03-12T12:59:57.209Z,15.50
2023-03-12T13:02:27.753Z,17.10
2023-03-12T13:04:58.989Z,15.20
2023-03-12T13:07:27.993Z,15.47
2023-03-12T13:09:56.730Z,15.87
2023-03-12T13:12:33.115Z,15.23
2023-03-12T13:15:01.020Z,14.73
2023-03-12T13:17:35.031Z,14.57
2023-03-12T13:20:22.341Z,15.37
2023-03-12T13:23:11.917Z,13.90
2023-03-12T13:26:11.538Z,14.47
2023-03-12T13:29:11.413Z,15.40
2023-03-12T13:31:40.480Z,15.60
2023-03-12T13:34:08.856Z,15.80
2023-03-12T13:36:38.724Z,16.63
2023-03-12T13:39:08.612Z,16.17
2023-03-12T13:41:38.558Z,16.87
2023-03-12T13:44:34.690Z,16.97
2023-03-12T13:47:04.828Z,17.53
2023-03-12T13:49:52.417Z,17.37
2023-03-12T13:52:21.258Z,17.47
2023-03-12T13:54:50.488Z,17.03
2023-03-12T13:57:31.437Z,17.47
2023-03-12T13:59:59.110Z,19.47
2023-03-12T14:02:31.750Z,18.63
2023-03-12T14:05:04.031Z,18.20
2023-03-12T14:07:35.670Z,20.33
2023-03-12T14:10:10.316Z,18.83
2023-03-12T14:13:01.433Z,18.20
2023-03-12T14:15:35.604Z,20.57
2023-03-12T14:18:04.982Z,18.83
2023-03-12T14:20:32.202Z,19.40
2023-03-12T14:23:00.802Z,28.43
2023-03-12T14:25:34.007Z,20.57
2023-03-12T14:28:02.147Z,16.97
2023-03-12T14:30:47.943Z,17.40
2023-03-12T14:33:16.229Z,18.00
2023-03-12T14:35:50.276Z,18.07
2023-03-12T14:38:17.417Z,17.13
2023-03-12T14:40:52.835Z,17.93
2023-03-12T14:43:29.897Z,15.53
2023-03-12T14:46:07.596Z,15.23
2023-03-12T14:48:35.667Z,15.80
2023-03-12T14:51:03.409Z,15.53
2023-03-12T14:53:34.931Z,15.17
2023-03-12T14:56:03.318Z,13.70
2023-03-12T14:58:30.821Z,13.57
2023-03-12T15:01:02.768Z,14.20
2023-03-12T15:03:31.327Z,13.43
2023-03-12T15:05:58.654Z,13.90
2023-03-12T15:08:26.092Z,13.53
2023-03-12T15:10:57.816Z,13.93
2023-03-12T15:13:26.215Z,13.50
2023-03-12T15:15:55.163Z,13.27
2023-03-12T15:18:32.474Z,13.57
2023-03-12T15:21:00.315Z,13.97
2023-03-12T15:23:28.657Z,13.40
2023-03-12T15:26:16.271Z,13.47
2023-03-12T15:28:43.382Z,13.43
2023-03-12T15:31:15.522Z,14.03
2023-03-12T15:33:43.876Z,12.57
2023-03-12T15:36:17.476Z,11.70
2023-03-12T15:38:49.607Z,13.33
2023-03-12T15:41:19.879Z,14.63
2023-03-12T15:43:48.687Z,12.70
2023-03-12T15:46:18.171Z,10.80
2023-03-12T15:48:50.240Z,11.03
2023-03-12T15:51:34.637Z,13.63
2023-03-12T15:54:03.229Z,9.13
2023-03-12T15:56:31.878Z,8.97
2023-03-12T15:59:03.746Z,9.27
2023-03-12T16:01:30.931Z,9.57
2023-03-12T16:03:58.985Z,8.03
2023-03-12T16:06:29.713Z,8.27
2023-03-12T16:08:58.501Z,8.40
2023-03-12T16:11:27.338Z,7.80
2023-03-12T16:14:03.951Z,7.80
2023-03-12T16:16:31.213Z,8.30
2023-03-12T16:18:58.346Z,9.03
2023-03-12T16:21:25.505Z,6.93
2023-03-12T16:23:52.605Z,7.20
2023-03-12T16:26:19.711Z,8.43
2023-03-12T16:28:46.860Z,7.23
2023-03-12T16:31:14.828Z,9.50
2023-03-12T16:33:42.337Z,7.83
2023-03-12T16:36:16.028Z,7.87
2023-03-12T16:38:43.798Z,7.33
2023-03-12T16:41:13.233Z,8.00
2023-03-12T16:43:41.046Z,7.90
2023-03-12T16:46:09.300Z,9.47
2023-03-12T16:48:36.622Z,7.20
2023-03-12T16:51:04.264Z,6.23
2023-03-12T16:53:31.559Z,6.73
2023-03-12T16:56:02.490Z,6.50
2023-03-12T16:58:30.999Z,6.77
2023-03-12T17:00:58.342Z,7.27
2023-03-12T17:03:30.722Z,15.50
2023-03-12T17:05:58.746Z,8.00
2023-03-12T17:08:25.889Z,6.53
2023-03-12T17:10:52.957Z,6.90
2023-03-12T17:13:27.501Z,6.50
2023-03-12T17:15:55.566Z,8.50
2023-03-12T17:18:22.738Z,7.83
2023-03-12T17:20:51.580Z,6.97
2023-03-12T17:23:19.081Z,6.83
2023-03-12T17:25:46.606Z,6.33
2023-03-12T17:28:15.204Z,6.53
2023-03-12T17:30:42.400Z,6.87
2023-03-12T17:33:11.406Z,6.53
2023-03-12T17:35:39.803Z,7.30
2023-03-12T17:38:06.963Z,8.50
2023-03-12T17:40:35.500Z,7.03
2023-03-12T17:43:02.534Z,6.67
2023-03-12T17:45:29.586Z,7.13
2023-03-12T17:47:56.626Z,8.37
2023-03-12T17:50:23.727Z,8.17
2023-03-12T17:52:51.537Z,7.40
2023-03-12T17:55:18.728Z,8.50
2023-03-12T17:57:45.881Z,10.37
2023-03-12T18:00:13.360Z,9.27
2023-03-12T18:02:41.110Z,9.30
2023-03-12T18:05:09.027Z,7.90
2023-03-12T18:07:36.461Z,9.53
2023-03-12T18:10:03.840Z,8.73
2023-03-12T18:12:30.949Z,9.70
2023-03-12T18:14:58.019Z,10.67
2023-03-12T18:17:25.078Z,10.43
2023-03-12T18:19:52.124Z,10.80
2023-03-12T18:22:19.878Z,10.70
2023-03-12T18:24:47.792Z,11.13
2023-03-12T18:27:14.928Z,11.80
2023-03-12T18:29:42.356Z,9.90
2023-03-12T18:32:09.538Z,16.10
2023-03-12T18:34:37.603Z,12.87
2023-03-12T18:37:04.643Z,14.40
2023-03-12T18:39:31.762Z,12.13
2023-03-12T18:41:58.803Z,12.03
2023-03-12T18:44:25.869Z,11.53
2023-03-12T18:46:53.878Z,11.03
2023-03-12T18:49:21.130Z,12.13
2023-03-12T18:51:48.238Z,11.47
2023-03-12T18:54:16.185Z,10.20
2023-03-12T18:56:43.269Z,9.80
2023-03-12T18:59:10.327Z,10.30
2023-03-12T19:01:37.400Z,9.43
2023-03-12T19:04:04.702Z,9.23
2023-03-12T19:06:44.326Z,10.83
2023-03-12T19:09:17.350Z,10.93
2023-03-12T19:11:44.406Z,9.43
2023-03-12T19:14:12.304Z,10.63
2023-03-12T19:16:39.463Z,8.87
2023-03-12T19:19:06.723Z,9.43
2023-03-12T19:21:33.780Z,9.73
2023-03-12T19:24:00.810Z,8.97
2023-03-12T19:26:27.869Z,7.97
2023-03-12T19:28:54.963Z,8.00
2023-03-12T19:31:22.058Z,8.90
2023-03-12T19:33:49.176Z,7.90
2023-03-12T19:36:16.297Z,7.10
2023-03-12T19:38:43.318Z,7.47
2023-03-12T19:41:10.448Z,8.07
2023-03-12T19:43:37.941Z,6.53
2023-03-12T19:46:05.245Z,7.13
2023-03-12T19:48:32.590Z,6.80
2023-03-12T19:51:06.103Z,5.67
2023-03-12T19:53:35.998Z,7.83
2023-03-12T19:56:03.323Z,6.70
2023-03-12T19:58:30.407Z,6.53
2023-03-12T20:01:00.819Z,6.77
2023-03-12T20:03:28.551Z,6.33
2023-03-12T20:05:56.694Z,5.70
2023-03-12T20:08:26.070Z,6.97
2023-03-12T20:11:11.423Z,6.97
2023-03-12T20:13:41.478Z,5.87
2023-03-12T20:16:08.849Z,6.87
2023-03-12T20:18:38.891Z,6.03
2023-03-12T20:21:06.076Z,7.47
2023-03-12T20:23:33.188Z,7.13
2023-03-12T20:26:00.430Z,5.97
2023-03-12T20:28:27.482Z,6.63
2023-03-12T20:30:54.644Z,6.50
2023-03-12T20:33:21.954Z,5.73
2023-03-12T20:35:50.518Z,6.70
2023-03-12T20:38:17.665Z,6.60
2023-03-12T20:40:47.791Z,5.57
2023-03-12T20:43:14.837Z,6.67
2023-03-12T20:45:41.981Z,6.37
2023-03-12T20:48:09.117Z,6.23
2023-03-12T20:50:39.125Z,5.97
2023-03-12T20:53:06.658Z,5.20
2023-03-12T20:55:33.795Z,5.63
2023-03-12T20:58:00.849Z,6.17
2023-03-12T21:00:28.033Z,5.97
2023-03-12T21:02:55.077Z,6.17
2023-03-12T21:05:24.941Z,5.57
2023-03-12T21:07:53.672Z,5.70
2023-03-12T21:10:21.131Z,5.80
2023-03-12T21:12:48.227Z,6.57
2023-03-12T21:15:15.261Z,6.07
2023-03-12T21:17:42.319Z,5.40
2023-03-12T21:20:17.253Z,6.30
2023-03-12T21:22:46.772Z,6.57
2023-03-12T21:25:13.957Z,6.87
2023-03-12T21:27:50.545Z,6.17
2023-03-12T21:30:18.592Z,6.03
2023-03-12T21:32:45.713Z,6.67
2023-03-12T21:35:12.825Z,6.00
2023-03-12T21:37:40.303Z,5.13
2023-03-12T21:40:09.241Z,9.87
2023-03-12T21:42:36.509Z,6.07
2023-03-12T21:45:03.630Z,5.17
2023-03-12T21:47:30.750Z,5.73
2023-03-12T21:49:57.806Z,6.67
2023-03-12T21:52:24.945Z,5.17
2023-03-12T21:54:51.977Z,5.93
2023-03-12T21:57:19.032Z,6.33
2023-03-12T21:59:46.079Z,7.00
2023-03-12T22:02:16.621Z,6.07
2023-03-12T22:04:43.879Z,6.43
2023-03-12T22:07:11.012Z,7.47
2023-03-12T22:09:38.133Z,6.67
2023-03-12T22:12:05.329Z,8.03
2023-03-12T22:14:32.518Z,6.93
2023-03-12T22:16:59.617Z,6.70
2023-03-12T22:19:26.656Z,6.53
2023-03-12T22:21:54.117Z,7.23
2023-03-12T22:24:21.183Z,5.63
2023-03-12T22:26:48.290Z,6.10
2023-03-12T22:29:15.334Z,6.47
2023-03-12T22:31:42.441Z,5.97
2023-03-12T22:34:09.823Z,7.03
2023-03-12T22:36:40.417Z,7.43
2023-03-12T22:39:07.597Z,6.23
2023-03-12T22:41:34.677Z,5.10
2023-03-12T22:44:02.956Z,5.67
2023-03-12T22:46:30.069Z,5.63
2023-03-12T22:48:58.726Z,6.00
2023-03-12T22:51:26.204Z,5.67
2023-03-12T22:53:53.317Z,6.20
2023-03-12T22:56:20.418Z,5.87
2023-03-12T22:58:47.698Z,5.63
2023-03-12T23:01:16.063Z,7.00
2023-03-12T23:03:43.819Z,5.60
2023-03-12T23:06:12.217Z,5.60
2023-03-12T23:08:39.447Z,6.27
2023-03-12T23:11:06.971Z,6.67
2023-03-12T23:13:35.106Z,6.30
2023-03-12T23:16:04.845Z,5.80
2023-03-12T23:18:32.090Z,5.73
2023-03-12T23:20:59.992Z,5.00
2023-03-12T23:23:27.111Z,5.60
2023-03-12T23:25:57.534Z,5.97
2023-03-12T23:28:25.106Z,5.90
2023-03-12T23:30:55.166Z,5.13
2023-03-12T23:33:22.261Z,4.87
2023-03-12T23:35:56.586Z,4.33
2023-03-12T23:38:24.094Z,5.20
2023-03-12T23:40:51.483Z,4.40
2023-03-12T23:43:18.565Z,6.23
2023-03-12T23:45:45.683Z,5.67
2023-03-12T23:48:12.825Z,5.10
2023-03-12T23:50:41.110Z,5.53
2023-03-12T23:53:08.221Z,4.87
2023-03-12T23:55:35.289Z,4.80
2023-03-12T23:58:02.397Z,5.00
